sensor_id;sensor_type;location;lat;lon;timestamp;pressure;altitude;pressure_sealevel;temperature;humidity
34500;BME280;20745;50.882;6.962;2023-02-11T00:02:25;102913.13;;;6.97;100.00
34500;BME280;20745;50.882;6.962;2023-02-11T00:04:54;102912.16;;;6.98;100.00
34500;BME280;20745;50.882;6.962;2023-02-11T00:07:21;102901.41;;;6.98;100.00
34500;BME280;20745;50.882;6.962;2023-02-11T00:09:53;102891.53;;;6.98;100.00
34500;BME280;20745;50.882;6.962;2023-02-11T00:12:19;102883.47;;;6.98;100.00
34500;BME280;20745;50.882;6.962;2023-02-11T00:14:46;102892.09;;;7.03;100.00
34500;BME280;20745;50.882;6.962;2023-02-11T00:17:32;102895.50;;;7.05;100.00
34500;BME280;20745;50.882;6.962;2023-02-11T00:19:58;102900.66;;;7.08;100.00
34500;BME280;20745;50.882;6.962;2023-02-11T00:22:25;102893.59;;;7.07;100.00
34500;BME280;20745;50.882;6.962;2023-02-11T00:24:52;102883.47;;;6.98;100.00
34500;BME280;20745;50.882;6.962;2023-02-11T00:27:24;102890.13;;;7.05;100.00
34500;BME280;20745;50.882;6.962;2023-02-11T00:29:50;102879.72;;;7.13;100.00
34500;BME280;20745;50.882;6.962;2023-02-11T00:32:17;102876.59;;;7.19;100.00
34500;BME280;20745;50.882;6.962;2023-02-11T00:34:45;102874.44;;;7.24;100.00
34500;BME280;20745;50.882;6.962;2023-02-11T00:37:11;102878.84;;;7.25;100.00
34500;BME280;20745;50.882;6.962;2023-02-11T00:39:38;102875.31;;;7.25;100.00
34500;BME280;20745;50.882;6.962;2023-02-11T00:42:05;102870.06;;;7.23;100.00
34500;BME280;20745;50.882;6.962;2023-02-11T00:44:31;102873.47;;;7.25;100.00
34500;BME280;20745;50.882;6.962;2023-02-11T00:46:58;102864.69;;;7.23;100.00
34500;BME280;20745;50.882;6.962;2023-02-11T00:49:24;102859.72;;;7.17;100.00
34500;BME280;20745;50.882;6.962;2023-02-11T00:51:51;102874.25;;;7.27;100.00
34500;BME280;20745;50.882;6.962;2023-02-11T00:54:17;102867.78;;;7.30;100.00
34500;BME280;20745;50.882;6.962;2023-02-11T00:56:44;102865.53;;;7.36;100.00
34500;BME280;20745;50.882;6.962;2023-02-11T00:59:10;102854.03;;;7.34;100.00
34500;BME280;20745;50.882;6.962;2023-02-11T01:01:37;102856.06;;;7.31;100.00
34500;BME280;20745;50.882;6.962;2023-02-11T01:04:04;102851.88;;;7.27;100.00
34500;BME280;20745;50.882;6.962;2023-02-11T01:06:30;102849.28;;;7.25;100.00
34500;BME280;20745;50.882;6.962;2023-02-11T01:08:57;102855.75;;;7.23;100.00
34500;BME280;20745;50.882;6.962;2023-02-11T01:11:24;102844.59;;;7.16;100.00
34500;BME280;20745;50.882;6.962;2023-02-11T01:13:51;102862.94;;;7.22;100.00
34500;BME280;20745;50.882;6.962;2023-02-11T01:16:18;102859.06;;;7.14;100.00
34500;BME280;20745;50.882;6.962;2023-02-11T01:18:46;102863.59;;;7.13;100.00
34500;BME280;20745;50.882;6.962;2023-02-11T01:21:13;102865.41;;;7.13;100.00
34500;BME280;20745;50.882;6.962;2023-02-11T01:23:40;102861.88;;;7.12;100.00
34500;BME280;20745;50.882;6.962;2023-02-11T01:26:06;102863.06;;;7.08;100.00
34500;BME280;20745;50.882;6.962;2023-02-11T01:28:33;102874.66;;;7.09;100.00
34500;BME280;20745;50.882;6.962;2023-02-11T01:31:01;102871.22;;;7.07;100.00
34500;BME280;20745;50.882;6.962;2023-02-11T01:33:28;102863.25;;;7.05;100.00
34500;BME280;20745;50.882;6.962;2023-02-11T01:36:20;102871.31;;;7.05;100.00
34500;BME280;20745;50.882;6.962;2023-02-11T01:38:51;102868.13;;;7.00;100.00
34500;BME280;20745;50.882;6.962;2023-02-11T01:41:17;102869.06;;;6.99;100.00
34500;BME280;20745;50.882;6.962;2023-02-11T01:43:47;102870.78;;;7.00;100.00
34500;BME280;20745;50.882;6.962;2023-02-11T01:49:14;102869.16;;;6.98;100.00
34500;BME280;20745;50.882;6.962;2023-02-11T01:51:50;102885.94;;;7.01;100.00
34500;BME280;20745;50.882;6.962;2023-02-11T01:54:21;102892.09;;;7.03;100.00
34500;BME280;20745;50.882;6.962;2023-02-11T01:57:30;102885.72;;;7.04;100.00
34500;BME280;20745;50.882;6.962;2023-02-11T02:00:12;102884.66;;;7.07;100.00
34500;BME280;20745;50.882;6.962;2023-02-11T02:07:04;102882.16;;;7.04;100.00
34500;BME280;20745;50.882;6.962;2023-02-11T02:09:21;102874.53;;;6.98;100.00
34500;BME280;20745;50.882;6.962;2023-02-11T02:11:49;102877.69;;;7.04;100.00
34500;BME280;20745;50.882;6.962;2023-02-11T02:14:16;102881.34;;;7.03;100.00
34500;BME280;20745;50.882;6.962;2023-02-11T02:16:43;102880.88;;;7.09;100.00
34500;BME280;20745;50.882;6.962;2023-02-11T02:25:35;102876.94;;;7.15;100.00
34500;BME280;20745;50.882;6.962;2023-02-11T02:34:40;102872.19;;;7.18;100.00
34500;BME280;20745;50.882;6.962;2023-02-11T02:37:35;102864.34;;;7.15;100.00
34500;BME280;20745;50.882;6.962;2023-02-11T02:40:50;102841.13;;;7.02;100.00
34500;BME280;20745;50.882;6.962;2023-02-11T02:43:41;102838.25;;;7.05;100.00
34500;BME280;20745;50.882;6.962;2023-02-11T02:46:32;102849.81;;;7.05;100.00
34500;BME280;20745;50.882;6.962;2023-02-11T02:49:19;102853.19;;;7.09;100.00
34500;BME280;20745;50.882;6.962;2023-02-11T03:04:51;102828.00;;;6.72;100.00
34500;BME280;20745;50.882;6.962;2023-02-11T03:07:56;102836.25;;;6.69;100.00
34500;BME280;20745;50.882;6.962;2023-02-11T03:10:47;102808.00;;;6.64;100.00
34500;BME280;20745;50.882;6.962;2023-02-11T03:13:36;102820.59;;;6.63;100.00
34500;BME280;20745;50.882;6.962;2023-02-11T03:16:25;102827.88;;;6.61;100.00
34500;BME280;20745;50.882;6.962;2023-02-11T03:19:19;102800.50;;;6.56;100.00
34500;BME280;20745;50.882;6.962;2023-02-11T03:22:11;102814.88;;;6.68;100.00
34500;BME280;20745;50.882;6.962;2023-02-11T03:25:00;102792.75;;;6.64;100.00
34500;BME280;20745;50.882;6.962;2023-02-11T03:28:07;102802.66;;;6.76;100.00
34500;BME280;20745;50.882;6.962;2023-02-11T03:31:07;102811.47;;;6.78;100.00
34500;BME280;20745;50.882;6.962;2023-02-11T03:34:03;102814.25;;;6.77;100.00
34500;BME280;20745;50.882;6.962;2023-02-11T03:37:06;102824.78;;;6.80;100.00
34500;BME280;20745;50.882;6.962;2023-02-11T03:40:04;102819.19;;;6.83;100.00
34500;BME280;20745;50.882;6.962;2023-02-11T03:42:57;102808.47;;;6.83;100.00
34500;BME280;20745;50.882;6.962;2023-02-11T03:45:46;102804.28;;;6.79;100.00
34500;BME280;20745;50.882;6.962;2023-02-11T03:48:38;102804.28;;;6.79;100.00
34500;BME280;20745;50.882;6.962;2023-02-11T03:51:28;102802.66;;;6.76;100.00
34500;BME280;20745;50.882;6.962;2023-02-11T03:54:20;102799.22;;;6.74;100.00
34500;BME280;20745;50.882;6.962;2023-02-11T03:57:09;102798.44;;;6.72;100.00
34500;BME280;20745;50.882;6.962;2023-02-11T03:59:57;102800.59;;;6.67;100.00
34500;BME280;20745;50.882;6.962;2023-02-11T04:02:44;102797.81;;;6.69;100.00
34500;BME280;20745;50.882;6.962;2023-02-11T04:05:31;102806.09;;;6.66;100.00
34500;BME280;20745;50.882;6.962;2023-02-11T04:08:19;102815.75;;;6.68;100.00
34500;BME280;20745;50.882;6.962;2023-02-11T04:11:05;102817.25;;;6.72;100.00
34500;BME280;20745;50.882;6.962;2023-02-11T04:13:52;102809.97;;;6.74;100.00
34500;BME280;20745;50.882;6.962;2023-02-11T04:16:39;102814.03;;;6.80;100.00
34500;BME280;20745;50.882;6.962;2023-02-11T04:19:26;102810.28;;;6.82;100.00
34500;BME280;20745;50.882;6.962;2023-02-11T04:22:13;102813.72;;;6.84;100.00
34500;BME280;20745;50.882;6.962;2023-02-11T04:25:00;102812.75;;;6.85;100.00
34500;BME280;20745;50.882;6.962;2023-02-11T04:27:46;102798.78;;;6.80;100.00
34500;BME280;20745;50.882;6.962;2023-02-11T04:30:33;102806.94;;;6.91;100.00
34500;BME280;20745;50.882;6.962;2023-02-11T04:33:20;102803.28;;;6.92;100.00
34500;BME280;20745;50.882;6.962;2023-02-11T04:36:07;102805.97;;;6.92;100.00
34500;BME280;20745;50.882;6.962;2023-02-11T04:38:54;102796.00;;;6.94;100.00
34500;BME280;20745;50.882;6.962;2023-02-11T04:41:41;102792.34;;;6.95;100.00
34500;BME280;20745;50.882;6.962;2023-02-11T04:44:28;102782.56;;;6.94;100.00
34500;BME280;20745;50.882;6.962;2023-02-11T04:47:15;102778.38;;;6.90;100.00
34500;BME280;20745;50.882;6.962;2023-02-11T04:50:02;102779.88;;;6.94;100.00
34500;BME280;20745;50.882;6.962;2023-02-11T04:52:49;102773.53;;;6.95;100.00
34500;BME280;20745;50.882;6.962;2023-02-11T04:55:36;102774.72;;;6.91;100.00
34500;BME280;20745;50.882;6.962;2023-02-11T04:58:23;102745.41;;;6.76;100.00
34500;BME280;20745;50.882;6.962;2023-02-11T05:01:12;102780.75;;;6.95;100.00
34500;BME280;20745;50.882;6.962;2023-02-11T05:03:59;102772.13;;;6.90;100.00
34500;BME280;20745;50.882;6.962;2023-02-11T05:06:46;102781.59;;;6.95;100.00
34500;BME280;20745;50.882;6.962;2023-02-11T05:09:33;102781.78;;;6.92;100.00
34500;BME280;20745;50.882;6.962;2023-02-11T05:12:20;102788.03;;;6.93;100.00
34500;BME280;20745;50.882;6.962;2023-02-11T05:15:07;102794.28;;;6.93;100.00
34500;BME280;20745;50.882;6.962;2023-02-11T05:17:54;102798.47;;;6.97;100.00
34500;BME280;20745;50.882;6.962;2023-02-11T05:20:42;102784.06;;;6.98;100.00
34500;BME280;20745;50.882;6.962;2023-02-11T05:23:29;102786.44;;;6.90;100.00
34500;BME280;20745;50.882;6.962;2023-02-11T05:26:16;102790.63;;;6.94;100.00
34500;BME280;20745;50.882;6.962;2023-02-11T05:29:03;102784.16;;;6.97;100.00
34500;BME280;20745;50.882;6.962;2023-02-11T05:31:50;102778.91;;;6.95;100.00
34500;BME280;20745;50.882;6.962;2023-02-11T05:34:37;102780.41;;;6.99;100.00
34500;BME280;20745;50.882;6.962;2023-02-11T05:37:23;102783.94;;;7.00;100.00
34500;BME280;20745;50.882;6.962;2023-02-11T05:40:10;102778.69;;;6.98;100.00
34500;BME280;20745;50.882;6.962;2023-02-11T05:42:57;102777.28;;;6.93;100.00
34500;BME280;20745;50.882;6.962;2023-02-11T05:45:44;102777.97;;;6.96;100.00
34500;BME280;20745;50.882;6.962;2023-02-11T05:48:31;102776.22;;;6.95;100.00
34500;BME280;20745;50.882;6.962;2023-02-11T05:51:18;102776.31;;;6.94;100.00
34500;BME280;20745;50.882;6.962;2023-02-11T05:54:05;102771.81;;;6.94;100.00
34500;BME280;20745;50.882;6.962;2023-02-11T05:56:52;102779.00;;;6.94;100.00
34500;BME280;20745;50.882;6.962;2023-02-11T05:59:39;102785.03;;;6.97;100.00
34500;BME280;20745;50.882;6.962;2023-02-11T06:02:26;102769.13;;;6.94;100.00
34500;BME280;20745;50.882;6.962;2023-02-11T06:05:13;102767.41;;;6.93;100.00
34500;BME280;20745;50.882;6.962;2023-02-11T06:08:00;102768.16;;;6.95;100.00
34500;BME280;20745;50.882;6.962;2023-02-11T06:10:46;102771.38;;;7.00;100.00
34500;BME280;20745;50.882;6.962;2023-02-11T06:13:34;102758.06;;;6.99;100.00
34500;BME280;20745;50.882;6.962;2023-02-11T06:16:20;102766.97;;;6.99;100.00
34500;BME280;20745;50.882;6.962;2023-02-11T06:19:07;102750.00;;;6.99;100.00
34500;BME280;20745;50.882;6.962;2023-02-11T06:21:55;102760.00;;;6.97;100.00
34500;BME280;20745;50.882;6.962;2023-02-11T06:24:42;102745.72;;;6.96;100.00
34500;BME280;20745;50.882;6.962;2023-02-11T06:27:47;102745.06;;;6.93;100.00
34500;BME280;20745;50.882;6.962;2023-02-11T06:30:35;102743.66;;;6.87;100.00
34500;BME280;20745;50.882;6.962;2023-02-11T06:33:22;102760.09;;;6.95;100.00
34500;BME280;20745;50.882;6.962;2023-02-11T06:36:19;102754.81;;;6.94;100.00
34500;BME280;20745;50.882;6.962;2023-02-11T06:39:07;102758.38;;;6.94;100.00
34500;BME280;20745;50.882;6.962;2023-02-11T06:41:54;102771.50;;;6.99;100.00
34500;BME280;20745;50.882;6.962;2023-02-11T06:44:41;102776.97;;;6.97;100.00
34500;BME280;20745;50.882;6.962;2023-02-11T06:47:27;102772.78;;;6.93;100.00
34500;BME280;20745;50.882;6.962;2023-02-11T06:50:14;102770.41;;;7.01;100.00
34500;BME280;20745;50.882;6.962;2023-02-11T06:53:01;102763.00;;;7.05;100.00
34500;BME280;20745;50.882;6.962;2023-02-11T06:55:48;102775.34;;;7.20;100.00
34500;BME280;20745;50.882;6.962;2023-02-11T06:58:36;102776.81;;;7.24;100.00
34500;BME280;20745;50.882;6.962;2023-02-11T07:01:23;102775.75;;;7.26;100.00
34500;BME280;20745;50.882;6.962;2023-02-11T07:04:11;102781.97;;;7.27;100.00
34500;BME280;20745;50.882;6.962;2023-02-11T07:07:01;102787.56;;;7.24;100.00
34500;BME280;20745;50.882;6.962;2023-02-11T07:09:48;102793.59;;;7.27;100.00
34500;BME280;20745;50.882;6.962;2023-02-11T07:12:34;102799.84;;;7.28;100.00
34500;BME280;20745;50.882;6.962;2023-02-11T07:15:21;102797.28;;;7.26;100.00
34500;BME280;20745;50.882;6.962;2023-02-11T07:18:08;102804.13;;;7.30;100.00
34500;BME280;20745;50.882;6.962;2023-02-11T07:20:55;102798.00;;;7.28;100.00
34500;BME280;20745;50.882;6.962;2023-02-11T07:23:42;102797.78;;;7.31;100.00
34500;BME280;20745;50.882;6.962;2023-02-11T07:26:29;102784.56;;;7.28;100.00
34500;BME280;20745;50.882;6.962;2023-02-11T07:29:16;102784.78;;;7.25;100.00
34500;BME280;20745;50.882;6.962;2023-02-11T07:32:02;102809.50;;;7.30;100.00
34500;BME280;20745;50.882;6.962;2023-02-11T07:34:49;102817.56;;;7.30;100.00
34500;BME280;20745;50.882;6.962;2023-02-11T07:37:36;102818.31;;;7.32;100.00
34500;BME280;20745;50.882;6.962;2023-02-11T07:40:23;102827.34;;;7.31;100.00
34500;BME280;20745;50.882;6.962;2023-02-11T07:43:10;102821.09;;;7.31;100.00
34500;BME280;20745;50.882;6.962;2023-02-11T07:45:57;102779.84;;;7.07;100.00
34500;BME280;20745;50.882;6.962;2023-02-11T07:48:44;102821.75;;;7.34;100.00
34500;BME280;20745;50.882;6.962;2023-02-11T07:51:31;102822.75;;;7.33;100.00
34500;BME280;20745;50.882;6.962;2023-02-11T07:54:18;102824.56;;;7.33;100.00
34500;BME280;20745;50.882;6.962;2023-02-11T07:57:05;102816.16;;;7.37;100.00
34500;BME280;20745;50.882;6.962;2023-02-11T07:59:52;102809.09;;;7.36;100.00
34500;BME280;20745;50.882;6.962;2023-02-11T08:02:39;102809.09;;;7.36;100.00
34500;BME280;20745;50.882;6.962;2023-02-11T08:05:26;102809.81;;;7.38;100.00
34500;BME280;20745;50.882;6.962;2023-02-11T08:08:12;102817.03;;;7.38;100.00
34500;BME280;20745;50.882;6.962;2023-02-11T08:11:11;102826.69;;;7.40;100.00
34500;BME280;20745;50.882;6.962;2023-02-11T08:13:58;102834.00;;;7.38;100.00
34500;BME280;20745;50.882;6.962;2023-02-11T08:16:45;102834.00;;;7.38;100.00
34500;BME280;20745;50.882;6.962;2023-02-11T08:19:31;102839.16;;;7.41;100.00
34500;BME280;20745;50.882;6.962;2023-02-11T08:22:20;102832.69;;;7.44;100.00
34500;BME280;20745;50.882;6.962;2023-02-11T08:25:07;102841.31;;;7.49;100.00
34500;BME280;20745;50.882;6.962;2023-02-11T08:27:54;102837.44;;;7.53;100.00
34500;BME280;20745;50.882;6.962;2023-02-11T08:30:41;102844.22;;;7.46;100.00
34500;BME280;20745;50.882;6.962;2023-02-11T08:33:28;102846.03;;;7.45;100.00
34500;BME280;20745;50.882;6.962;2023-02-11T08:36:17;102847.53;;;7.49;100.00
34500;BME280;20745;50.882;6.962;2023-02-11T08:39:08;102850.97;;;7.51;100.00
34500;BME280;20745;50.882;6.962;2023-02-11T08:42:05;102845.59;;;7.51;100.00
34500;BME280;20745;50.882;6.962;2023-02-11T08:44:52;102844.50;;;7.54;100.00
34500;BME280;20745;50.882;6.962;2023-02-11T08:47:39;102839.47;;;7.49;100.00
34500;BME280;20745;50.882;6.962;2023-02-11T08:50:26;102856.53;;;7.61;100.00
34500;BME280;20745;50.882;6.962;2023-02-11T08:53:14;102850.84;;;7.66;100.00
34500;BME280;20745;50.882;6.962;2023-02-11T08:56:00;102857.97;;;7.67;100.00
34500;BME280;20745;50.882;6.962;2023-02-11T08:58:46;102861.16;;;7.72;100.00
34500;BME280;20745;50.882;6.962;2023-02-11T09:01:31;102869.44;;;7.69;100.00
34500;BME280;20745;50.882;6.962;2023-02-11T09:04:17;102870.44;;;7.68;100.00
34500;BME280;20745;50.882;6.962;2023-02-11T09:07:04;102865.56;;;7.73;100.00
34500;BME280;20745;50.882;6.962;2023-02-11T09:09:40;102871.59;;;7.76;100.00
34500;BME280;20745;50.882;6.962;2023-02-11T09:12:26;102880.84;;;7.72;100.00
34500;BME280;20745;50.882;6.962;2023-02-11T09:14:52;102882.78;;;7.70;100.00
34500;BME280;20745;50.882;6.962;2023-02-11T09:17:19;102887.19;;;7.71;100.00
34500;BME280;20745;50.882;6.962;2023-02-11T09:19:45;102876.03;;;7.65;100.00
34500;BME280;20745;50.882;6.962;2023-02-11T09:22:12;102904.41;;;7.69;100.00
34500;BME280;20745;50.882;6.962;2023-02-11T09:24:38;102897.22;;;7.69;100.00
34500;BME280;20745;50.882;6.962;2023-02-11T09:27:05;102890.03;;;7.70;100.00
34500;BME280;20745;50.882;6.962;2023-02-11T09:29:31;102896.88;;;7.74;100.00
34500;BME280;20745;50.882;6.962;2023-02-11T09:31:58;102897.63;;;7.76;100.00
34500;BME280;20745;50.882;6.962;2023-02-11T09:34:28;102896.56;;;7.78;100.00
34500;BME280;20745;50.882;6.962;2023-02-11T09:36:54;102891.91;;;7.80;100.00
34500;BME280;20745;50.882;6.962;2023-02-11T09:39:21;102900.97;;;7.79;100.00
34500;BME280;20745;50.882;6.962;2023-02-11T09:42:06;102899.97;;;7.80;100.00
34500;BME280;20745;50.882;6.962;2023-02-11T09:44:37;102896.41;;;7.92;100.00
34500;BME280;20745;50.882;6.962;2023-02-11T09:47:09;102899.09;;;7.92;100.00
34500;BME280;20745;50.882;6.962;2023-02-11T09:49:55;102900.06;;;7.91;100.00
34500;BME280;20745;50.882;6.962;2023-02-11T09:52:39;102887.91;;;7.86;100.00
34500;BME280;20745;50.882;6.962;2023-02-11T09:55:32;102902.53;;;7.94;100.00
34500;BME280;20745;50.882;6.962;2023-02-11T09:58:06;102911.59;;;7.93;100.00
34500;BME280;20745;50.882;6.962;2023-02-11T10:00:42;102912.22;;;7.97;100.00
34500;BME280;20745;50.882;6.962;2023-02-11T10:03:41;102909.66;;;7.95;100.00
34500;BME280;20745;50.882;6.962;2023-02-11T10:06:37;102910.28;;;7.99;100.00
34500;BME280;20745;50.882;6.962;2023-02-11T10:15:04;102907.69;;;8.10;100.00
34500;BME280;20745;50.882;6.962;2023-02-11T10:22:59;102929.50;;;8.18;100.00
34500;BME280;20745;50.882;6.962;2023-02-11T10:25:33;102917.56;;;8.22;100.00
34500;BME280;20745;50.882;6.962;2023-02-11T10:28:11;102931.78;;;8.24;100.00
34500;BME280;20745;50.882;6.962;2023-02-11T10:30:48;102921.72;;;8.26;100.00
34500;BME280;20745;50.882;6.962;2023-02-11T10:35:59;102914.41;;;8.28;100.00
34500;BME280;20745;50.882;6.962;2023-02-11T10:38:26;102912.25;;;8.20;100.00
34500;BME280;20745;50.882;6.962;2023-02-11T10:40:53;102918.22;;;8.25;100.00
34500;BME280;20745;50.882;6.962;2023-02-11T10:43:24;102933.25;;;8.28;100.00
34500;BME280;20745;50.882;6.962;2023-02-11T10:45:53;102929.47;;;8.30;100.00
34500;BME280;20745;50.882;6.962;2023-02-11T10:48:43;102927.44;;;8.34;100.00
34500;BME280;20745;50.882;6.962;2023-02-11T10:53:47;102934.34;;;8.49;100.00
34500;BME280;20745;50.882;6.962;2023-02-11T10:56:26;102931.06;;;8.45;100.00
34500;BME280;20745;50.882;6.962;2023-02-11T10:58:59;102934.00;;;8.53;100.00
34500;BME280;20745;50.882;6.962;2023-02-11T11:01:47;102938.31;;;8.56;100.00
34500;BME280;20745;50.882;6.962;2023-02-11T11:07:21;102929.88;;;8.60;100.00
34500;BME280;20745;50.882;6.962;2023-02-11T11:09:54;102930.53;;;8.64;100.00
34500;BME280;20745;50.882;6.962;2023-02-11T11:12:45;102932.69;;;8.59;100.00
34500;BME280;20745;50.882;6.962;2023-02-11T11:15:17;102935.50;;;8.57;100.00
34500;BME280;20745;50.882;6.962;2023-02-11T11:17:45;102929.28;;;8.57;100.00
34500;BME280;20745;50.882;6.962;2023-02-11T11:20:29;102925.75;;;8.67;100.00
34500;BME280;20745;50.882;6.962;2023-02-11T11:23:13;102919.53;;;8.67;100.00
34500;BME280;20745;50.882;6.962;2023-02-11T11:25:57;102923.47;;;8.74;100.00
34500;BME280;20745;50.882;6.962;2023-02-11T11:28:26;102924.72;;;8.81;100.00
34500;BME280;20745;50.882;6.962;2023-02-11T11:30:55;102930.00;;;8.82;100.00
34500;BME280;20745;50.882;6.962;2023-02-11T11:33:26;102918.56;;;8.79;100.00
34500;BME280;20745;50.882;6.962;2023-02-11T11:36:05;102921.38;;;8.77;100.00
34500;BME280;20745;50.882;6.962;2023-02-11T11:38:35;102921.00;;;8.71;100.00
34500;BME280;20745;50.882;6.962;2023-02-11T11:41:21;102925.41;;;8.72;100.00
34500;BME280;20745;50.882;6.962;2023-02-11T11:44:03;102917.78;;;8.66;100.00
34500;BME280;20745;50.882;6.962;2023-02-11T11:46:44;102911.31;;;8.68;100.00
34500;BME280;20745;50.882;6.962;2023-02-11T11:49:27;102911.09;;;8.71;100.00
34500;BME280;20745;50.882;6.962;2023-02-11T11:52:17;102906.91;;;8.67;100.00
34500;BME280;20745;50.882;6.962;2023-02-11T11:54:53;102913.91;;;8.70;100.00
34500;BME280;20745;50.882;6.962;2023-02-11T11:57:25;102904.84;;;8.71;100.00
34500;BME280;20745;50.882;6.962;2023-02-11T11:59:53;102895.78;;;8.72;100.00
34500;BME280;20745;50.882;6.962;2023-02-11T12:03:00;102903.84;;;8.72;100.00
34500;BME280;20745;50.882;6.962;2023-02-11T12:06:13;102900.31;;;8.71;100.00
34500;BME280;20745;50.882;6.962;2023-02-11T12:08:32;102897.47;;;8.73;100.00
34500;BME280;20745;50.882;6.962;2023-02-11T12:13:50;102895.31;;;8.78;100.00
34500;BME280;20745;50.882;6.962;2023-02-11T12:27:08;102919.28;;;8.70;100.00
34500;BME280;20745;50.882;6.962;2023-02-11T12:30:05;102922.44;;;8.64;100.00
34500;BME280;20745;50.882;6.962;2023-02-11T12:40:37;102927.50;;;8.68;100.00
34500;BME280;20745;50.882;6.962;2023-02-11T12:48:29;102928.66;;;8.64;100.00
34500;BME280;20745;50.882;6.962;2023-02-11T12:56:41;102909.44;;;8.58;100.00
34500;BME280;20745;50.882;6.962;2023-02-11T12:59:22;102918.53;;;8.68;100.00
34500;BME280;20745;50.882;6.962;2023-02-11T13:01:54;102911.72;;;8.75;100.00
34500;BME280;20745;50.882;6.962;2023-02-11T13:04:32;102916.00;;;8.77;100.00
34500;BME280;20745;50.882;6.962;2023-02-11T13:07:10;102906.84;;;8.80;100.00
34500;BME280;20745;50.882;6.962;2023-02-11T13:09:47;102887.72;;;8.83;100.00
34500;BME280;20745;50.882;6.962;2023-02-11T13:12:16;102900.25;;;8.84;100.00
34500;BME280;20745;50.882;6.962;2023-02-11T13:15:05;102898.38;;;8.84;100.00
34500;BME280;20745;50.882;6.962;2023-02-11T13:17:39;102893.59;;;8.77;100.00
34500;BME280;20745;50.882;6.962;2023-02-11T13:20:17;102905.41;;;8.87;100.00
34500;BME280;20745;50.882;6.962;2023-02-11T13:22:58;102901.47;;;8.91;100.00
34500;BME280;20745;50.882;6.962;2023-02-11T13:28:19;102898.50;;;8.83;100.00
34500;BME280;20745;50.882;6.962;2023-02-11T13:30:49;102890.03;;;8.76;100.00
34500;BME280;20745;50.882;6.962;2023-02-11T13:33:31;102883.78;;;8.76;100.00
34500;BME280;20745;50.882;6.962;2023-02-11T13:38:26;102888.94;;;8.79;100.00
34500;BME280;20745;50.882;6.962;2023-02-11T13:41:19;102898.75;;;8.80;100.00
34500;BME280;20745;50.882;6.962;2023-02-11T13:44:22;102903.41;;;8.78;100.00
34500;BME280;20745;50.882;6.962;2023-02-11T13:47:00;102897.25;;;8.76;100.00
34500;BME280;20745;50.882;6.962;2023-02-11T13:49:40;102896.19;;;8.78;100.00
34500;BME280;20745;50.882;6.962;2023-02-11T13:52:32;102895.94;;;8.81;100.00
34500;BME280;20745;50.882;6.962;2023-02-11T13:55:06;102897.53;;;8.84;100.00
34500;BME280;20745;50.882;6.962;2023-02-11T13:57:37;102900.34;;;8.82;100.00
34500;BME280;20745;50.882;6.962;2023-02-11T14:27:06;102904.84;;;9.05;100.00
34500;BME280;20745;50.882;6.962;2023-02-11T14:29:44;102890.50;;;9.05;100.00
34500;BME280;20745;50.882;6.962;2023-02-11T14:32:48;102891.47;;;9.04;100.00
34500;BME280;20745;50.882;6.962;2023-02-11T14:43:45;102913.41;;;9.10;100.00
34500;BME280;20745;50.882;6.962;2023-02-11T14:46:17;102912.56;;;9.10;100.00
34500;BME280;20745;50.882;6.962;2023-02-11T14:48:46;102916.75;;;9.14;100.00
34500;BME280;20745;50.882;6.962;2023-02-11T14:51:30;102910.13;;;9.18;100.00
34500;BME280;20745;50.882;6.962;2023-02-11T14:54:16;102901.28;;;9.16;100.00
34500;BME280;20745;50.882;6.962;2023-02-11T14:56:44;102903.25;;;9.14;100.00
34500;BME280;20745;50.882;6.962;2023-02-11T14:59:16;102898.22;;;9.20;100.00
34500;BME280;20745;50.882;6.962;2023-02-11T15:01:45;102892.84;;;9.20;100.00
34500;BME280;20745;50.882;6.962;2023-02-11T15:06:48;102891.38;;;9.16;100.00
34500;BME280;20745;50.882;6.962;2023-02-11T15:09:18;102901.81;;;9.21;100.00
34500;BME280;20745;50.882;6.962;2023-02-11T15:11:50;102908.06;;;9.21;100.00
34500;BME280;20745;50.882;6.962;2023-02-11T15:14:23;102903.63;;;9.20;100.00
34500;BME280;20745;50.882;6.962;2023-02-11T15:16:51;102905.50;;;9.20;100.00
34500;BME280;20745;50.882;6.962;2023-02-11T15:19:31;102908.78;;;9.23;100.00
34500;BME280;20745;50.882;6.962;2023-02-11T15:22:03;102899.84;;;9.23;100.00
34500;BME280;20745;50.882;6.962;2023-02-11T15:24:31;102908.78;;;9.23;100.00
34500;BME280;20745;50.882;6.962;2023-02-11T15:29:28;102905.50;;;9.20;100.00
34500;BME280;20745;50.882;6.962;2023-02-11T15:32:04;102907.31;;;9.19;100.00
34500;BME280;20745;50.882;6.962;2023-02-11T15:34:32;102918.97;;;9.20;100.00
34500;BME280;20745;50.882;6.962;2023-02-11T15:36:59;102923.38;;;9.21;100.00
34500;BME280;20745;50.882;6.962;2023-02-11T15:39:31;102917.88;;;9.22;100.00
34500;BME280;20745;50.882;6.962;2023-02-11T15:42:24;102928.53;;;9.24;100.00
34500;BME280;20745;50.882;6.962;2023-02-11T15:47:47;102913.81;;;9.17;100.00
34500;BME280;20745;50.882;6.962;2023-02-11T15:50:34;102928.66;;;9.22;100.00
34500;BME280;20745;50.882;6.962;2023-02-11T15:53:25;102931.34;;;9.22;100.00
34500;BME280;20745;50.882;6.962;2023-02-11T15:56:43;102928.25;;;9.16;100.00
34500;BME280;20745;50.882;6.962;2023-02-11T15:58:45;102931.94;;;9.15;100.00
34500;BME280;20745;50.882;6.962;2023-02-11T16:01:12;102930.81;;;9.17;100.00
34500;BME280;20745;50.882;6.962;2023-02-11T16:03:40;102933.91;;;9.13;100.00
34500;BME280;20745;50.882;6.962;2023-02-11T16:19:31;102930.00;;;9.17;100.00
34500;BME280;20745;50.882;6.962;2023-02-11T16:22:07;102938.91;;;9.17;100.00
34500;BME280;20745;50.882;6.962;2023-02-11T16:24:36;102935.38;;;9.17;100.00
34500;BME280;20745;50.882;6.962;2023-02-11T16:27:33;102943.47;;;9.17;100.00